Wood, Iowa
Current Conditions -  °F | °C
As of 9:15 AM on Friday 19 Dec 2014 (Local Time) from KPDC Reporting Station
Overcast Overcast  
Wind Chill: 26°   Ceiling: 7500
Heat Index: 26°   Visibility: 10mi
Dew Point: 19°   Wind: 3mph
Humidity: 75%   Direction: 100°E
Pressure: 30.31"   Gusts: NA
Location:  42.6679°N, 91.3801°W
Report Text: KPDC 191515Z AUTO 10003KT 10SM OVC075 M03/M07 A3031 RMK AO2 T10311070
Loading
Personal Weather Stations






























Interactive Weather Map New forecast layout! Learn more

10-Day Weather Forecast

Advertisements
Track Severe Weather on mobile